createdAt,value
2017-08-20T00:01:38.317Z,3.30
2017-08-20T00:04:06.279Z,3.73
2017-08-20T00:06:33.859Z,2.70
2017-08-20T00:09:01.436Z,3.30
2017-08-20T00:11:29.128Z,3.00
2017-08-20T00:13:56.720Z,3.67
2017-08-20T00:16:24.690Z,3.50
2017-08-20T00:18:52.298Z,3.20
2017-08-20T00:21:19.889Z,3.20
2017-08-20T00:23:47.508Z,3.20
2017-08-20T00:26:15.088Z,2.97
2017-08-20T00:28:42.696Z,2.70
2017-08-20T00:31:10.292Z,2.90
2017-08-20T00:33:38.206Z,3.10
2017-08-20T00:36:05.806Z,3.27
2017-08-20T00:38:33.403Z,3.00
2017-08-20T00:41:01.011Z,2.73
2017-08-20T00:43:28.593Z,4.10
2017-08-20T00:45:56.377Z,4.13
2017-08-20T00:48:23.964Z,2.90
2017-08-20T00:50:51.848Z,3.13
2017-08-20T00:53:19.428Z,3.20
2017-08-20T00:55:46.996Z,3.47
2017-08-20T00:58:14.759Z,2.83
2017-08-20T01:00:42.330Z,3.20
2017-08-20T01:03:09.945Z,2.73
2017-08-20T01:05:37.533Z,2.77
2017-08-20T01:08:05.491Z,3.10
2017-08-20T01:10:33.077Z,2.93
2017-08-20T01:13:00.667Z,2.50
2017-08-20T01:15:28.256Z,2.73
2017-08-20T01:17:55.832Z,2.50
2017-08-20T01:20:23.431Z,2.60
2017-08-20T01:22:51.009Z,2.83
2017-08-20T01:25:18.928Z,2.93
2017-08-20T01:27:46.512Z,2.33
2017-08-20T01:30:14.085Z,3.13
2017-08-20T01:32:41.712Z,2.67
2017-08-20T01:35:09.297Z,2.80
2017-08-20T01:37:36.894Z,2.43
2017-08-20T01:40:04.489Z,2.93
2017-08-20T01:42:32.075Z,2.30
2017-08-20T01:44:59.693Z,2.73
2017-08-20T01:47:27.427Z,2.40
2017-08-20T01:49:55.129Z,2.70
2017-08-20T01:52:22.765Z,2.43
2017-08-20T01:54:50.685Z,2.70
2017-08-20T01:57:18.318Z,2.77
2017-08-20T01:59:45.906Z,2.60
2017-08-20T02:02:13.508Z,2.13
2017-08-20T02:04:41.817Z,2.37
2017-08-20T02:07:09.789Z,1.87
2017-08-20T02:09:37.362Z,2.17
2017-08-20T02:12:04.943Z,2.17
2017-08-20T02:14:32.555Z,2.60
2017-08-20T02:17:00.141Z,2.43
2017-08-20T02:19:27.742Z,2.40
2017-08-20T02:21:55.319Z,2.17
2017-08-20T02:24:23.220Z,2.20
2017-08-20T02:26:50.806Z,2.47
2017-08-20T02:29:18.409Z,2.80
2017-08-20T02:31:46.018Z,2.33
2017-08-20T02:34:13.614Z,2.77
2017-08-20T02:36:41.221Z,2.73
2017-08-20T02:39:08.920Z,2.53
2017-08-20T02:41:36.526Z,2.53
2017-08-20T02:44:04.144Z,2.60
2017-08-20T02:46:31.739Z,2.37
2017-08-20T02:48:59.343Z,2.67
2017-08-20T02:51:27.074Z,2.40
2017-08-20T02:53:54.959Z,2.13
2017-08-20T02:56:22.548Z,2.23
2017-08-20T02:58:50.107Z,2.60
2017-08-20T03:01:17.715Z,2.60
2017-08-20T03:03:45.304Z,2.70
2017-08-20T03:06:12.899Z,3.00
2017-08-20T03:08:40.546Z,2.70
2017-08-20T03:11:08.177Z,2.50
2017-08-20T03:13:35.797Z,2.80
2017-08-20T03:16:03.706Z,2.87
2017-08-20T03:18:31.294Z,3.00
2017-08-20T03:20:58.875Z,2.90
2017-08-20T03:23:26.483Z,3.20
2017-08-20T03:25:54.066Z,2.50
2017-08-20T03:28:21.673Z,3.13
2017-08-20T03:30:49.245Z,2.40
2017-08-20T03:33:17.266Z,2.40
2017-08-20T03:35:44.848Z,2.30
2017-08-20T03:38:12.427Z,2.43
2017-08-20T03:40:40.053Z,2.40
2017-08-20T03:43:07.660Z,2.97
2017-08-20T03:45:35.272Z,3.10
2017-08-20T03:48:02.846Z,2.30
2017-08-20T03:50:30.445Z,2.67
2017-08-20T03:52:58.031Z,2.43
2017-08-20T03:55:26.019Z,2.90
2017-08-20T03:57:53.591Z,3.30
2017-08-20T04:00:21.171Z,3.40
2017-08-20T04:02:48.812Z,2.90
2017-08-20T04:05:16.400Z,2.20
2017-08-20T04:07:44.017Z,2.73
2017-08-20T04:10:11.595Z,2.93
2017-08-20T04:12:39.539Z,2.93
2017-08-20T04:15:07.130Z,2.70
2017-08-20T04:17:34.746Z,3.30
2017-08-20T04:20:02.370Z,3.00
2017-08-20T04:22:29.948Z,3.03
2017-08-20T04:24:57.570Z,3.27
2017-08-20T04:27:25.171Z,2.97
2017-08-20T04:29:53.085Z,3.00
2017-08-20T04:32:20.659Z,3.30
2017-08-20T04:34:48.294Z,2.83
2017-08-20T04:37:15.883Z,2.77
2017-08-20T04:39:43.474Z,4.10
2017-08-20T04:42:11.091Z,3.20
2017-08-20T04:44:38.839Z,3.30
2017-08-20T04:47:06.899Z,3.60
2017-08-20T04:49:34.500Z,3.13
2017-08-20T04:52:02.283Z,3.63
2017-08-20T04:54:29.981Z,2.90
2017-08-20T04:56:57.574Z,3.50
2017-08-20T04:59:25.168Z,2.90
2017-08-20T05:01:52.791Z,3.03
2017-08-20T05:04:20.700Z,3.10
2017-08-20T05:06:48.294Z,2.93
2017-08-20T05:09:15.890Z,3.13
2017-08-20T05:11:43.500Z,3.00
2017-08-20T05:14:11.080Z,3.53
2017-08-20T05:16:38.694Z,3.37
2017-08-20T05:19:06.286Z,3.37
2017-08-20T05:21:34.329Z,2.50
2017-08-20T05:24:01.911Z,2.77
2017-08-20T05:26:29.551Z,2.93
2017-08-20T05:28:57.483Z,2.70
2017-08-20T05:31:25.048Z,2.93
2017-08-20T05:33:52.649Z,2.70
2017-08-20T05:36:20.254Z,2.60
2017-08-20T05:38:47.830Z,2.70
2017-08-20T05:41:15.433Z,2.80
2017-08-20T05:43:43.011Z,3.20
2017-08-20T05:46:10.606Z,3.20
2017-08-20T05:48:38.168Z,2.60
2017-08-20T05:51:05.787Z,2.63
2017-08-20T05:53:33.369Z,2.47
2017-08-20T05:56:00.945Z,2.40
2017-08-20T05:58:28.541Z,2.60
2017-08-20T06:00:56.117Z,2.20
2017-08-20T06:03:23.716Z,2.30
2017-08-20T06:05:51.328Z,2.30
2017-08-20T06:08:19.039Z,2.27
2017-08-20T06:10:46.652Z,2.60
2017-08-20T06:13:14.249Z,2.50
2017-08-20T06:15:41.842Z,2.47
2017-08-20T06:18:09.450Z,2.67
2017-08-20T06:20:37.483Z,2.10
2017-08-20T06:23:05.087Z,2.87
2017-08-20T06:25:32.708Z,2.50
2017-08-20T06:28:00.308Z,2.50
2017-08-20T06:30:27.921Z,2.33
2017-08-20T06:32:55.542Z,2.23
2017-08-20T06:35:23.242Z,2.07
2017-08-20T06:37:50.945Z,2.80
2017-08-20T06:40:18.544Z,1.90
2017-08-20T06:42:46.178Z,2.40
2017-08-20T06:45:13.792Z,2.27
2017-08-20T06:47:41.384Z,2.07
2017-08-20T06:50:09.028Z,2.30
2017-08-20T06:52:36.594Z,2.10
2017-08-20T06:55:04.182Z,2.40
2017-08-20T06:57:31.871Z,2.10
2017-08-20T06:59:59.495Z,2.23
2017-08-20T07:02:27.161Z,2.20
2017-08-20T07:04:56.133Z,1.87
2017-08-20T07:07:24.157Z,2.03
2017-08-20T07:09:51.742Z,2.00
2017-08-20T07:12:19.446Z,2.70
2017-08-20T07:14:47.069Z,2.50
2017-08-20T07:17:14.880Z,2.17
2017-08-20T07:19:42.512Z,2.13
2017-08-20T07:22:10.130Z,2.17
2017-08-20T07:24:37.852Z,2.50
2017-08-20T07:27:05.469Z,2.03
2017-08-20T07:29:33.037Z,2.60
2017-08-20T07:32:00.657Z,2.10
2017-08-20T07:34:28.269Z,2.50
2017-08-20T07:36:56.249Z,2.10
2017-08-20T07:39:24.026Z,2.37
2017-08-20T07:41:51.640Z,2.17
2017-08-20T07:44:19.282Z,2.07
2017-08-20T07:46:46.973Z,2.10
2017-08-20T07:49:14.685Z,2.37
2017-08-20T07:51:42.265Z,2.30
2017-08-20T07:54:10.181Z,2.20
2017-08-20T07:56:37.768Z,1.93
2017-08-20T07:59:05.383Z,2.20
2017-08-20T08:01:32.993Z,2.30
2017-08-20T08:04:00.568Z,1.93
2017-08-20T08:06:28.188Z,2.03
2017-08-20T08:08:55.932Z,2.40
2017-08-20T08:11:23.659Z,2.30
2017-08-20T08:13:51.282Z,2.30
2017-08-20T08:16:18.874Z,2.03
2017-08-20T08:18:46.476Z,2.00
2017-08-20T08:21:14.071Z,1.90
2017-08-20T08:23:42.198Z,2.10
2017-08-20T08:26:09.816Z,1.80
2017-08-20T08:28:37.533Z,2.30
2017-08-20T08:31:05.164Z,2.00
2017-08-20T08:33:32.768Z,1.80
2017-08-20T08:36:00.374Z,1.57
2017-08-20T08:38:27.964Z,1.40
2017-08-20T08:40:55.629Z,1.90
2017-08-20T08:43:23.217Z,2.03
2017-08-20T08:45:51.048Z,1.87
2017-08-20T08:48:18.649Z,2.07
2017-08-20T08:50:46.283Z,1.80
2017-08-20T08:53:13.864Z,1.77
2017-08-20T08:55:41.478Z,1.60
2017-08-20T08:58:09.061Z,1.70
2017-08-20T09:00:36.675Z,1.63
2017-08-20T09:03:04.285Z,1.80
2017-08-20T09:05:31.897Z,1.60
2017-08-20T09:07:59.653Z,1.90
2017-08-20T09:10:27.345Z,1.40
2017-08-20T09:12:55.000Z,1.57
2017-08-20T09:15:22.620Z,1.80
2017-08-20T09:17:50.610Z,1.40
2017-08-20T09:20:18.215Z,1.30
2017-08-20T09:22:45.807Z,1.60
2017-08-20T09:25:13.432Z,1.80
2017-08-20T09:27:41.030Z,1.70
2017-08-20T09:30:09.042Z,1.40
2017-08-20T09:32:37.214Z,1.60
2017-08-20T09:35:04.849Z,1.50
2017-08-20T09:37:32.537Z,1.40
2017-08-20T09:40:00.131Z,1.97
2017-08-20T09:42:27.747Z,1.50
2017-08-20T09:44:55.346Z,1.33
2017-08-20T09:47:23.652Z,1.50
2017-08-20T09:49:51.269Z,1.30
2017-08-20T09:52:18.971Z,1.40
2017-08-20T09:54:46.601Z,1.30
2017-08-20T09:57:14.205Z,1.30
2017-08-20T09:59:42.308Z,1.60
2017-08-20T10:02:09.883Z,1.40
2017-08-20T10:04:37.478Z,1.20
2017-08-20T10:07:05.297Z,1.70
2017-08-20T10:09:33.079Z,1.53
2017-08-20T10:12:00.693Z,1.60
2017-08-20T10:14:28.307Z,1.60
2017-08-20T10:16:55.949Z,1.50
2017-08-20T10:19:23.586Z,1.50
2017-08-20T10:21:51.159Z,1.20
2017-08-20T10:24:19.122Z,2.03
2017-08-20T10:26:46.740Z,1.10
2017-08-20T10:29:14.479Z,1.60
2017-08-20T10:31:42.116Z,2.00
2017-08-20T10:34:09.718Z,1.30
2017-08-20T10:36:37.342Z,1.40
2017-08-20T10:39:04.942Z,1.50
2017-08-20T10:41:32.837Z,1.67
2017-08-20T10:44:00.516Z,1.57
2017-08-20T10:46:28.118Z,1.50
2017-08-20T10:48:55.752Z,2.03
2017-08-20T10:51:23.375Z,1.50
2017-08-20T10:53:50.981Z,1.70
2017-08-20T10:56:18.586Z,1.40
2017-08-20T10:58:46.185Z,1.60
2017-08-20T11:01:13.772Z,1.10
2017-08-20T11:03:41.600Z,1.50
2017-08-20T11:06:09.259Z,1.50
2017-08-20T11:08:36.856Z,1.40
2017-08-20T11:11:04.503Z,1.50
2017-08-20T11:13:32.093Z,1.60
2017-08-20T11:15:59.809Z,1.30
2017-08-20T11:18:27.633Z,1.40
2017-08-20T11:20:55.203Z,1.50
2017-08-20T11:23:22.827Z,1.40
2017-08-20T11:25:50.426Z,1.60
2017-08-20T11:28:18.037Z,1.50
2017-08-20T11:30:45.659Z,1.83
2017-08-20T11:33:13.676Z,1.90
2017-08-20T11:35:41.361Z,1.70
2017-08-20T11:38:09.032Z,2.12
2017-08-20T11:40:36.793Z,1.93
2017-08-20T11:43:04.411Z,2.73
2017-08-20T11:45:32.061Z,1.70
2017-08-20T11:47:59.661Z,1.60
2017-08-20T11:50:27.264Z,1.43
2017-08-20T11:52:54.863Z,1.70
2017-08-20T11:55:22.556Z,1.50
2017-08-20T11:57:50.755Z,1.70
2017-08-20T12:00:18.578Z,1.52
2017-08-20T12:02:46.285Z,1.65
2017-08-20T12:05:13.878Z,1.70
2017-08-20T12:07:41.497Z,1.30
2017-08-20T12:10:09.079Z,1.70
2017-08-20T12:12:36.714Z,1.20
2017-08-20T12:15:04.418Z,1.20
2017-08-20T12:17:32.034Z,1.50
2017-08-20T12:19:59.631Z,1.40
2017-08-20T12:22:27.273Z,1.40
2017-08-20T12:24:55.075Z,1.60
2017-08-20T12:27:22.974Z,1.37
2017-08-20T12:29:50.601Z,1.73
2017-08-20T12:32:18.211Z,1.60
2017-08-20T12:34:45.812Z,1.40
2017-08-20T12:37:15.581Z,1.60
2017-08-20T12:39:43.184Z,1.43
2017-08-20T12:42:10.845Z,1.37
2017-08-20T12:44:38.473Z,1.33
2017-08-20T12:47:06.072Z,1.40
2017-08-20T12:49:33.700Z,1.50
2017-08-20T12:52:01.387Z,1.37
2017-08-20T12:54:29.412Z,1.53
2017-08-20T12:56:57.007Z,1.50
2017-08-20T12:59:24.611Z,1.60
2017-08-20T13:01:52.674Z,2.10
2017-08-20T13:04:20.926Z,1.90
2017-08-20T13:06:49.262Z,2.33
2017-08-20T13:09:16.963Z,1.63
2017-08-20T13:11:44.584Z,1.70
2017-08-20T13:14:12.269Z,1.40
2017-08-20T13:16:39.891Z,1.53
2017-08-20T13:19:07.868Z,1.40
2017-08-20T13:21:35.471Z,1.43
2017-08-20T13:24:03.089Z,1.93
2017-08-20T13:26:31.052Z,2.50
2017-08-20T13:28:58.643Z,2.43
2017-08-20T13:31:26.311Z,2.77
2017-08-20T13:33:53.970Z,1.70
2017-08-20T13:36:21.589Z,1.50
2017-08-20T13:38:49.200Z,1.87
2017-08-20T13:41:16.829Z,2.03
2017-08-20T13:43:44.578Z,1.53
2017-08-20T13:46:12.187Z,1.80
2017-08-20T13:48:39.834Z,1.40
2017-08-20T13:51:07.460Z,1.67
2017-08-20T13:53:35.923Z,1.80
2017-08-20T13:56:03.533Z,1.30
2017-08-20T13:58:31.153Z,1.40
2017-08-20T14:00:58.765Z,1.80
2017-08-20T14:03:26.795Z,2.00
2017-08-20T14:05:54.470Z,1.50
2017-08-20T14:08:22.095Z,1.53
2017-08-20T14:10:50.727Z,1.70
2017-08-20T14:13:18.318Z,1.73
2017-08-20T14:15:45.940Z,1.87
2017-08-20T14:18:13.605Z,1.43
2017-08-20T14:20:41.244Z,1.43
2017-08-20T14:23:08.827Z,1.40
2017-08-20T14:25:36.833Z,1.43
2017-08-20T14:28:04.668Z,1.57
2017-08-20T14:30:32.476Z,1.57
2017-08-20T14:33:00.216Z,1.37
2017-08-20T14:35:27.834Z,1.27
2017-08-20T14:37:57.449Z,1.60
2017-08-20T14:40:25.044Z,1.80
2017-08-20T14:42:52.690Z,1.30
2017-08-20T14:45:20.328Z,1.70
2017-08-20T14:47:48.029Z,1.50
2017-08-20T14:50:15.906Z,1.50
2017-08-20T14:52:43.605Z,1.40
2017-08-20T14:55:11.203Z,1.27
2017-08-20T14:57:38.910Z,1.70
2017-08-20T15:00:06.707Z,1.17
2017-08-20T15:02:34.419Z,1.63
2017-08-20T15:05:02.138Z,1.57
2017-08-20T15:07:29.755Z,1.30
2017-08-20T15:09:57.809Z,1.60
2017-08-20T15:12:25.510Z,1.40
2017-08-20T15:14:53.662Z,1.40
2017-08-20T15:17:21.287Z,1.10
2017-08-20T15:19:48.908Z,1.40
2017-08-20T15:22:16.654Z,1.10
2017-08-20T15:24:44.308Z,1.60
2017-08-20T15:27:12.094Z,1.33
2017-08-20T15:29:39.718Z,1.33
2017-08-20T15:32:09.252Z,1.17
2017-08-20T15:34:36.872Z,1.53
2017-08-20T15:37:04.497Z,1.60
2017-08-20T15:39:32.103Z,1.23
2017-08-20T15:41:59.715Z,1.20
2017-08-20T15:44:27.534Z,1.40
2017-08-20T15:46:55.631Z,1.50
2017-08-20T15:49:23.568Z,1.40
2017-08-20T15:51:51.264Z,1.30
2017-08-20T15:54:18.884Z,1.20
2017-08-20T15:56:46.601Z,1.73
2017-08-20T15:59:14.224Z,1.60
2017-08-20T16:01:41.824Z,1.80
2017-08-20T16:04:09.415Z,1.33
2017-08-20T16:06:37.021Z,1.73
2017-08-20T16:09:05.035Z,1.50
2017-08-20T16:11:32.672Z,1.43
2017-08-20T16:14:00.330Z,1.60
2017-08-20T16:16:28.156Z,2.10
2017-08-20T16:18:55.793Z,1.73
2017-08-20T16:21:25.488Z,1.80
2017-08-20T16:23:53.067Z,1.60
2017-08-20T16:26:20.654Z,1.30
2017-08-20T16:28:48.252Z,1.77
2017-08-20T16:31:16.270Z,1.80
2017-08-20T16:33:43.866Z,1.50
2017-08-20T16:36:11.463Z,2.03
2017-08-20T16:38:39.378Z,1.10
2017-08-20T16:41:07.359Z,1.37
2017-08-20T16:43:34.976Z,1.60
2017-08-20T16:46:02.793Z,2.17
2017-08-20T16:48:30.401Z,2.00
2017-08-20T16:50:58.505Z,1.70
2017-08-20T16:53:26.128Z,1.37
2017-08-20T16:55:53.856Z,1.50
2017-08-20T16:58:21.452Z,1.90
2017-08-20T17:00:49.400Z,1.50
2017-08-20T17:03:17.020Z,1.73
2017-08-20T17:05:44.652Z,1.40
2017-08-20T17:08:12.312Z,1.70
2017-08-20T17:10:39.932Z,1.73
2017-08-20T17:13:07.562Z,1.63
2017-08-20T17:15:35.177Z,1.80
2017-08-20T17:18:03.517Z,1.87
2017-08-20T17:20:31.492Z,1.87
2017-08-20T17:22:59.083Z,2.03
2017-08-20T17:25:26.696Z,2.40
2017-08-20T17:27:55.716Z,2.90
2017-08-20T17:30:23.369Z,2.93
2017-08-20T17:32:50.986Z,2.60
2017-08-20T17:35:18.704Z,1.83
2017-08-20T17:37:46.380Z,1.70
2017-08-20T17:40:14.326Z,2.53
2017-08-20T17:42:41.985Z,2.30
2017-08-20T17:45:09.645Z,2.00
2017-08-20T17:47:37.676Z,2.17
2017-08-20T17:50:05.508Z,2.00
2017-08-20T17:52:35.334Z,1.80
2017-08-20T17:55:02.981Z,2.17
2017-08-20T17:57:30.984Z,2.60
2017-08-20T17:59:59.005Z,2.00
2017-08-20T18:02:26.628Z,2.23
2017-08-20T18:04:54.304Z,2.30
2017-08-20T18:07:22.437Z,1.83
2017-08-20T18:09:50.452Z,2.30
2017-08-20T18:12:18.201Z,1.90
2017-08-20T18:14:45.934Z,1.70
2017-08-20T18:17:13.574Z,1.63
2017-08-20T18:19:43.463Z,1.83
2017-08-20T18:22:11.152Z,2.10
2017-08-20T18:24:38.783Z,2.30
2017-08-20T18:27:06.390Z,1.90
2017-08-20T18:29:34.019Z,2.20
2017-08-20T18:32:01.743Z,2.00
2017-08-20T18:34:29.391Z,1.83
2017-08-20T18:36:57.034Z,2.03
2017-08-20T18:39:25.086Z,1.83
2017-08-20T18:41:54.410Z,2.13
2017-08-20T18:44:23.769Z,2.30
2017-08-20T18:46:51.577Z,1.90
2017-08-20T18:49:19.201Z,2.10
2017-08-20T18:51:49.409Z,2.23
2017-08-20T18:54:17.003Z,2.10
2017-08-20T18:56:44.744Z,1.80
2017-08-20T18:59:12.364Z,2.10
2017-08-20T19:01:40.011Z,1.90
2017-08-20T19:04:08.123Z,1.90
2017-08-20T19:06:37.169Z,1.90
2017-08-20T19:09:04.806Z,1.90
2017-08-20T19:11:32.408Z,1.90
2017-08-20T19:14:00.134Z,2.30
2017-08-20T19:16:27.763Z,1.80
2017-08-20T19:18:55.758Z,1.87
2017-08-20T19:21:23.355Z,3.13
2017-08-20T19:23:52.396Z,4.07
2017-08-20T19:26:20.047Z,4.90
2017-08-20T19:28:47.688Z,2.90
2017-08-20T19:31:15.308Z,3.83
2017-08-20T19:33:43.006Z,3.70
2017-08-20T19:36:12.159Z,3.00
2017-08-20T19:38:40.348Z,2.17
2017-08-20T19:41:08.270Z,2.00
2017-08-20T19:43:35.997Z,1.90
2017-08-20T19:46:03.608Z,2.30
2017-08-20T19:48:31.230Z,1.77
2017-08-20T19:50:58.932Z,2.17
2017-08-20T19:53:26.975Z,1.90
2017-08-20T19:55:54.571Z,2.10
2017-08-20T19:58:22.173Z,2.17
2017-08-20T20:00:49.827Z,1.80
2017-08-20T20:03:17.448Z,2.87
2017-08-20T20:05:45.202Z,1.90
2017-08-20T20:08:12.790Z,2.17
2017-08-20T20:10:40.788Z,2.03
2017-08-20T20:13:08.389Z,1.83
2017-08-20T20:15:36.017Z,2.23
2017-08-20T20:18:03.874Z,2.00
2017-08-20T20:20:31.599Z,2.13
2017-08-20T20:22:59.320Z,2.10
2017-08-20T20:25:26.921Z,1.90
2017-08-20T20:27:54.521Z,2.40
2017-08-20T20:30:22.139Z,2.50
2017-08-20T20:32:49.749Z,2.73
2017-08-20T20:35:17.380Z,1.93
2017-08-20T20:37:45.128Z,2.13
2017-08-20T20:40:13.015Z,2.67
2017-08-20T20:42:40.714Z,2.20
2017-08-20T20:45:08.430Z,2.43
2017-08-20T20:47:36.063Z,2.20
2017-08-20T20:50:03.676Z,2.57
2017-08-20T20:52:31.485Z,2.10
2017-08-20T20:54:59.201Z,2.27
2017-08-20T20:57:27.182Z,1.80
2017-08-20T20:59:54.784Z,1.93
2017-08-20T21:02:22.415Z,2.20
2017-08-20T21:04:50.210Z,1.97
2017-08-20T21:07:17.815Z,2.30
2017-08-20T21:09:45.437Z,2.13
2017-08-20T21:12:13.118Z,1.93
2017-08-20T21:14:40.742Z,2.30
2017-08-20T21:17:08.337Z,2.10
2017-08-20T21:19:36.325Z,2.50
2017-08-20T21:22:03.920Z,2.43
2017-08-20T21:24:31.697Z,2.43
2017-08-20T21:26:59.337Z,2.47
2017-08-20T21:29:26.941Z,2.13
2017-08-20T21:31:54.641Z,2.30
2017-08-20T21:34:22.244Z,2.23
2017-08-20T21:36:50.185Z,2.30
2017-08-20T21:39:17.965Z,2.50
2017-08-20T21:41:45.569Z,2.08
2017-08-20T21:44:13.236Z,2.30
2017-08-20T21:46:40.976Z,2.40
2017-08-20T21:49:08.618Z,2.67
2017-08-20T21:51:36.238Z,2.30
2017-08-20T21:54:03.857Z,2.27
2017-08-20T21:56:31.467Z,2.57
2017-08-20T21:58:59.352Z,2.60
2017-08-20T22:01:26.953Z,2.20
2017-08-20T22:03:54.536Z,2.20
2017-08-20T22:06:22.167Z,2.20
2017-08-20T22:08:49.767Z,2.20
2017-08-20T22:11:17.681Z,2.23
2017-08-20T22:13:45.429Z,2.30
2017-08-20T22:16:13.020Z,2.30
2017-08-20T22:18:40.643Z,1.90
2017-08-20T22:21:08.248Z,2.10
2017-08-20T22:23:36.130Z,2.07
2017-08-20T22:26:03.731Z,2.40
2017-08-20T22:28:31.344Z,1.80
2017-08-20T22:30:59.092Z,2.30
2017-08-20T22:33:26.700Z,2.93
2017-08-20T22:35:54.351Z,2.30
2017-08-20T22:38:21.965Z,2.20
2017-08-20T22:40:49.923Z,2.20
2017-08-20T22:43:17.524Z,2.37
2017-08-20T22:45:45.134Z,2.70
2017-08-20T22:48:12.930Z,2.43
2017-08-20T22:50:40.527Z,2.63
2017-08-20T22:53:08.171Z,3.07
2017-08-20T22:55:35.945Z,2.70
2017-08-20T22:58:04.027Z,2.37
2017-08-20T23:00:31.635Z,2.70
2017-08-20T23:02:59.270Z,2.87
2017-08-20T23:05:26.909Z,2.60
2017-08-20T23:07:55.786Z,2.27
2017-08-20T23:10:23.391Z,2.43
2017-08-20T23:12:51.043Z,2.40
2017-08-20T23:15:18.733Z,2.40
2017-08-20T23:17:46.336Z,2.70
2017-08-20T23:20:14.425Z,2.60
2017-08-20T23:22:42.013Z,2.60
2017-08-20T23:25:09.756Z,2.60
2017-08-20T23:27:37.394Z,2.70
2017-08-20T23:30:05.015Z,2.73
2017-08-20T23:32:34.505Z,2.50
2017-08-20T23:35:02.112Z,3.13
2017-08-20T23:37:30.274Z,3.03
2017-08-20T23:39:57.842Z,2.87
2017-08-20T23:42:25.435Z,2.50
2017-08-20T23:44:53.051Z,2.60
2017-08-20T23:47:20.660Z,3.03
2017-08-20T23:49:48.289Z,2.17
2017-08-20T23:52:15.875Z,2.40
2017-08-20T23:54:43.497Z,2.60
2017-08-20T23:57:11.079Z,2.27
2017-08-20T23:59:38.678Z,1.90
